Time;durP1;ratioP1;P1;durP2;ratioP2;P2;SDS_P1;SDS_P2;PMS_P1;PMS_P2;Temp;Humidity;BMP_temperature;BMP_pressure;BME280_temperature;BME280_humidity;BME280_pressure;Samples;Min_cycle;Max_cycle;Signal;HPM_P1;HPM_P2
2023/08/31 00:02:15;;;;;;;8.40;3.33;;;12.60;99.90;;;;;;5069974;28;20087;-53
2023/08/31 00:04:40;;;;;;;7.18;2.53;;;12.60;99.90;;;;;;5072622;28;20040;-56
2023/08/31 00:07:06;;;;;;;6.32;2.83;;;12.70;99.90;;;;;;5073756;28;20043;-55
2023/08/31 00:09:32;;;;;;;8.45;2.90;;;12.70;99.90;;;;;;5073564;28;20480;-55
2023/08/31 00:12:01;;;;;;;8.80;3.10;;;12.70;99.90;;;;;;5073976;28;20072;-55
2023/08/31 00:14:27;;;;;;;9.57;3.38;;;12.80;99.90;;;;;;5073802;28;20150;-55
2023/08/31 00:16:53;;;;;;;6.13;3.08;;;12.80;99.90;;;;;;5073675;28;20036;-53
2023/08/31 00:19:19;;;;;;;5.13;2.15;;;12.80;99.90;;;;;;5073676;28;20051;-55
2023/08/31 00:21:45;;;;;;;4.70;2.10;;;12.80;99.90;;;;;;5073445;28;20048;-57
2023/08/31 00:24:11;;;;;;;6.47;2.30;;;12.80;99.90;;;;;;5073184;28;20131;-55
2023/08/31 00:26:42;;;;;;;3.28;1.20;;;12.70;99.90;;;;;;5071800;28;20439;-54
2023/08/31 00:29:11;;;;;;;3.88;1.10;;;12.80;99.90;;;;;;5072107;28;20526;-56
2023/08/31 00:31:37;;;;;;;3.08;1.10;;;12.70;99.90;;;;;;5073409;28;20071;-54
2023/08/31 00:34:04;;;;;;;3.17;0.82;;;12.60;99.90;;;;;;5073581;28;20112;-54
2023/08/31 00:36:31;;;;;;;5.22;1.05;;;12.70;99.90;;;;;;5073427;28;20048;-57
2023/08/31 00:38:57;;;;;;;2.63;0.80;;;12.60;99.90;;;;;;5073348;28;20090;-53
2023/08/31 00:41:23;;;;;;;2.70;0.68;;;12.60;99.90;;;;;;5070759;28;20040;-58
2023/08/31 00:43:48;;;;;;;3.75;1.00;;;12.60;99.90;;;;;;5073163;28;20384;-54
2023/08/31 00:46:14;;;;;;;4.72;1.10;;;12.50;99.90;;;;;;5073099;28;20071;-60
2023/08/31 00:48:41;;;;;;;3.92;0.90;;;12.60;99.90;;;;;;5073458;28;20040;-55
2023/08/31 00:51:07;;;;;;;3.95;1.67;;;12.50;99.90;;;;;;5072817;28;20032;-58
2023/08/31 00:53:35;;;;;;;6.70;3.22;;;12.50;99.90;;;;;;5072907;28;20505;-53
2023/08/31 00:56:02;;;;;;;8.13;4.70;;;12.50;99.90;;;;;;5072789;28;20064;-55
2023/08/31 00:58:27;;;;;;;9.55;5.05;;;12.60;99.90;;;;;;5073110;28;20037;-56
2023/08/31 01:01:05;;;;;;;9.85;4.88;;;12.70;99.90;;;;;;5072885;28;20537;-56
2023/08/31 01:04:00;;;;;;;7.15;4.50;;;12.60;99.90;;;;;;5071885;28;20133;-57
2023/08/31 01:06:29;;;;;;;12.10;4.95;;;12.70;99.90;;;;;;5072684;28;20071;-55
2023/08/31 01:09:10;;;;;;;10.85;4.70;;;12.60;99.90;;;;;;5072770;28;20041;-55
2023/08/31 01:11:58;;;;;;;8.82;4.78;;;12.70;99.90;;;;;;5071203;28;20055;-55
2023/08/31 01:14:27;;;;;;;9.60;4.53;;;12.70;99.90;;;;;;5071229;28;20135;-57
2023/08/31 01:16:57;;;;;;;9.15;4.30;;;12.60;99.90;;;;;;5071596;28;20661;-56
2023/08/31 01:19:48;;;;;;;7.15;3.50;;;12.60;99.90;;;;;;5072866;28;20036;-55
2023/08/31 01:22:31;;;;;;;6.03;3.45;;;12.60;99.90;;;;;;5072291;28;20364;-54
2023/08/31 01:25:01;;;;;;;5.35;2.90;;;12.60;99.90;;;;;;5071734;28;20060;-57
2023/08/31 01:27:27;;;;;;;4.70;2.88;;;12.50;99.90;;;;;;5071063;28;20040;-56
2023/08/31 01:29:54;;;;;;;4.80;2.30;;;12.50;99.90;;;;;;5070964;28;20388;-57
2023/08/31 01:32:20;;;;;;;4.25;2.17;;;12.50;99.90;;;;;;5071182;28;20146;-58
2023/08/31 01:34:46;;;;;;;4.53;2.15;;;12.40;99.90;;;;;;5072172;28;20051;-58
2023/08/31 01:37:19;;;;;;;4.80;1.98;;;12.40;99.90;;;;;;5070986;28;20072;-57
2023/08/31 01:39:52;;;;;;;6.78;2.20;;;12.30;99.90;;;;;;5071691;28;20541;-58
2023/08/31 01:42:18;;;;;;;4.57;1.92;;;12.30;99.90;;;;;;5071067;28;20043;-54
2023/08/31 01:44:48;;;;;;;4.18;1.23;;;12.30;99.90;;;;;;5071266;28;20032;-55
2023/08/31 01:47:16;;;;;;;5.90;1.63;;;12.20;99.90;;;;;;5070680;28;20055;-53
2023/08/31 01:49:43;;;;;;;4.15;1.65;;;12.10;99.90;;;;;;5070366;28;20060;-55
2023/08/31 01:52:09;;;;;;;3.80;1.35;;;12.20;99.90;;;;;;5072039;28;20124;-53
2023/08/31 01:54:37;;;;;;;4.63;1.10;;;12.10;99.90;;;;;;5071624;28;20094;-57
2023/08/31 01:57:03;;;;;;;3.25;1.20;;;12.10;99.90;;;;;;5070319;28;20040;-53
2023/08/31 01:59:28;;;;;;;4.05;1.17;;;12.10;99.90;;;;;;5071499;28;20052;-56
2023/08/31 02:01:54;;;;;;;3.75;1.20;;;12.00;99.90;;;;;;5070318;28;20040;-54
2023/08/31 02:04:20;;;;;;;3.63;1.00;;;12.00;99.90;;;;;;5071851;28;20040;-54
2023/08/31 02:06:46;;;;;;;2.67;1.00;;;11.90;99.90;;;;;;5071760;28;20241;-57
2023/08/31 02:09:13;;;;;;;1.80;0.90;;;11.90;99.90;;;;;;5071791;28;20561;-53
2023/08/31 02:11:39;;;;;;;2.25;1.00;;;11.80;99.90;;;;;;5068310;28;20047;-57
2023/08/31 02:14:05;;;;;;;1.85;0.90;;;11.80;99.90;;;;;;5071332;28;20037;-52
2023/08/31 02:16:31;;;;;;;2.58;0.82;;;11.70;99.90;;;;;;5071106;28;20492;-54
2023/08/31 02:18:58;;;;;;;3.10;1.00;;;11.70;99.90;;;;;;5070945;28;20353;-54
2023/08/31 02:21:24;;;;;;;2.90;1.15;;;11.70;99.90;;;;;;5069702;28;20439;-54
2023/08/31 02:23:50;;;;;;;3.13;1.73;;;11.60;99.90;;;;;;5070947;28;20044;-56
2023/08/31 02:26:15;;;;;;;4.85;2.05;;;11.50;99.90;;;;;;5069226;28;20122;-53
2023/08/31 02:28:41;;;;;;;4.85;2.47;;;11.50;99.90;;;;;;5071410;28;20106;-53
2023/08/31 02:31:10;;;;;;;4.10;2.55;;;11.50;99.90;;;;;;5071333;28;20072;-52
2023/08/31 02:33:36;;;;;;;6.43;3.10;;;11.50;99.90;;;;;;5069746;28;20040;-56
2023/08/31 02:36:01;;;;;;;5.32;3.47;;;11.50;99.90;;;;;;5071375;28;20044;-55
2023/08/31 02:38:27;;;;;;;5.43;3.40;;;11.50;99.90;;;;;;5071343;28;20424;-54
2023/08/31 02:40:53;;;;;;;7.05;4.55;;;11.50;99.90;;;;;;5070923;28;20032;-57
2023/08/31 02:43:18;;;;;;;6.55;5.00;;;11.50;99.90;;;;;;5071322;28;20115;-56
2023/08/31 02:45:44;;;;;;;7.18;5.75;;;11.50;99.90;;;;;;5071029;28;20040;-55
2023/08/31 02:48:10;;;;;;;7.45;6.15;;;11.60;99.90;;;;;;5071236;28;20028;-50
2023/08/31 02:50:36;;;;;;;7.75;7.05;;;11.60;99.90;;;;;;5071163;28;20040;-55
2023/08/31 02:53:02;;;;;;;8.90;7.72;;;11.70;99.90;;;;;;5070825;28;20044;-58
2023/08/31 02:55:27;;;;;;;12.05;9.15;;;11.70;99.90;;;;;;5068748;28;20029;-55
2023/08/31 02:57:54;;;;;;;10.07;8.70;;;11.60;99.90;;;;;;5070189;28;20078;-55
2023/08/31 03:00:23;;;;;;;10.85;9.40;;;11.70;99.90;;;;;;5070592;28;20033;-56
2023/08/31 03:02:51;;;;;;;9.60;8.45;;;11.60;99.90;;;;;;5071008;28;20068;-60
2023/08/31 03:05:18;;;;;;;10.35;9.27;;;11.70;99.90;;;;;;5070769;28;20093;-56
2023/08/31 03:07:43;;;;;;;10.15;9.25;;;11.60;99.90;;;;;;5070381;28;20048;-56
2023/08/31 03:10:10;;;;;;;10.60;9.50;;;11.60;99.90;;;;;;5070697;28;20025;-56
2023/08/31 03:12:36;;;;;;;10.07;9.07;;;11.60;99.90;;;;;;5070834;28;20044;-53
2023/08/31 03:15:02;;;;;;;10.23;8.40;;;11.50;99.90;;;;;;5070927;28;20621;-57
2023/08/31 03:17:28;;;;;;;9.70;8.32;;;11.50;99.90;;;;;;5070398;28;20048;-55
2023/08/31 03:19:54;;;;;;;9.63;7.45;;;11.50;99.90;;;;;;5069259;28;20036;-53
2023/08/31 03:22:19;;;;;;;8.60;7.70;;;11.60;99.90;;;;;;5070239;28;20506;-56
2023/08/31 03:24:45;;;;;;;6.95;4.25;;;11.60;99.90;;;;;;5070471;28;20048;-56
2023/08/31 03:27:11;;;;;;;8.55;7.00;;;11.40;99.90;;;;;;5069063;28;20051;-53
2023/08/31 03:29:36;;;;;;;8.68;6.70;;;11.60;99.90;;;;;;5070636;28;20125;-53
2023/08/31 03:32:02;;;;;;;8.25;6.40;;;11.50;99.90;;;;;;5070999;28;20032;-54
2023/08/31 03:34:30;;;;;;;7.55;6.53;;;11.50;99.90;;;;;;5070352;28;20220;-54
2023/08/31 03:36:56;;;;;;;6.45;3.55;;;11.50;99.90;;;;;;5071225;28;20484;-55
2023/08/31 03:39:22;;;;;;;8.07;5.15;;;11.50;99.90;;;;;;5074361;28;20033;-56
2023/08/31 03:41:47;;;;;;;8.55;5.28;;;11.40;99.90;;;;;;5070780;28;20472;-57
2023/08/31 03:44:13;;;;;;;6.75;3.03;;;11.50;99.90;;;;;;5074017;28;20061;-57
2023/08/31 03:46:39;;;;;;;5.85;4.53;;;11.50;99.90;;;;;;5074133;28;20512;-55
2023/08/31 03:49:05;;;;;;;8.18;3.60;;;11.40;99.90;;;;;;5074395;28;20040;-57
2023/08/31 03:51:30;;;;;;;8.18;4.68;;;11.40;99.90;;;;;;5074065;28;20048;-56
2023/08/31 03:53:56;;;;;;;5.82;4.28;;;11.50;99.90;;;;;;5074018;28;20503;-55
2023/08/31 03:56:22;;;;;;;6.40;4.65;;;11.50;99.90;;;;;;5074095;28;20036;-55
2023/08/31 03:58:48;;;;;;;7.20;4.50;;;11.50;99.90;;;;;;5073833;28;20075;-59
2023/08/31 04:01:14;;;;;;;6.70;3.40;;;11.40;99.90;;;;;;5072567;28;20032;-55
2023/08/31 04:03:42;;;;;;;7.65;4.65;;;11.50;99.90;;;;;;5073858;28;20051;-59
2023/08/31 04:06:08;;;;;;;8.35;3.15;;;11.40;99.90;;;;;;5073930;28;20123;-57
2023/08/31 04:08:33;;;;;;;7.25;4.65;;;11.40;99.90;;;;;;5073902;28;20127;-50
2023/08/31 04:10:59;;;;;;;5.72;2.83;;;11.40;99.90;;;;;;5073582;28;20698;-54
2023/08/31 04:13:25;;;;;;;8.48;4.85;;;11.50;99.90;;;;;;5073519;28;20066;-54
2023/08/31 04:15:53;;;;;;;11.10;5.78;;;11.40;99.90;;;;;;5071401;28;20044;-55
2023/08/31 04:18:19;;;;;;;8.02;5.05;;;11.50;99.90;;;;;;5073671;28;20124;-57
2023/08/31 04:20:52;;;;;;;7.75;5.15;;;11.40;99.90;;;;;;5073871;28;20043;-55
2023/08/31 04:23:19;;;;;;;7.00;3.38;;;11.60;99.90;;;;;;5073271;28;20045;-54
2023/08/31 04:25:47;;;;;;;10.55;6.10;;;11.50;99.90;;;;;;5070689;28;20472;-56
2023/08/31 04:28:13;;;;;;;8.43;4.00;;;11.50;99.90;;;;;;5073268;28;20106;-57
2023/08/31 04:30:43;;;;;;;9.75;7.03;;;11.40;99.90;;;;;;5073763;28;20101;-55
2023/08/31 04:33:08;;;;;;;9.68;4.80;;;11.50;99.90;;;;;;5073711;28;20468;-54
2023/08/31 04:35:34;;;;;;;9.15;8.15;;;11.40;99.90;;;;;;5073420;28;20058;-58
2023/08/31 04:38:03;;;;;;;11.57;9.07;;;11.50;99.90;;;;;;5073259;28;20127;-54
2023/08/31 04:40:29;;;;;;;12.95;9.07;;;11.50;99.90;;;;;;5071401;28;20036;-54
2023/08/31 04:42:55;;;;;;;11.38;9.93;;;11.50;99.90;;;;;;5073199;28;20068;-59
2023/08/31 04:45:20;;;;;;;10.13;5.72;;;11.50;99.90;;;;;;5073312;28;20078;-55
2023/08/31 04:47:46;;;;;;;12.25;11.05;;;11.50;99.90;;;;;;5073261;28;20052;-56
2023/08/31 04:50:12;;;;;;;10.90;6.68;;;11.50;99.90;;;;;;5072184;28;20101;-55
2023/08/31 04:52:37;;;;;;;10.02;6.63;;;11.50;99.90;;;;;;5073137;28;20143;-56
2023/08/31 04:55:13;;;;;;;12.52;10.40;;;11.60;99.90;;;;;;5071367;28;20124;-55
2023/08/31 04:57:39;;;;;;;9.32;6.20;;;11.50;99.90;;;;;;5071946;28;20048;-52
2023/08/31 05:00:08;;;;;;;14.05;11.50;;;11.60;99.90;;;;;;5072821;28;20488;-55
2023/08/31 05:02:34;;;;;;;12.43;10.63;;;11.70;99.90;;;;;;5073162;28;20434;-54
2023/08/31 05:05:00;;;;;;;13.23;11.25;;;11.60;99.90;;;;;;5071747;28;20509;-57
2023/08/31 05:07:26;;;;;;;11.02;6.47;;;11.70;99.90;;;;;;5072557;28;20046;-58
2023/08/31 05:09:52;;;;;;;13.57;10.93;;;11.70;99.90;;;;;;5072705;28;20132;-56
2023/08/31 05:12:17;;;;;;;12.27;6.93;;;11.60;99.90;;;;;;5069469;28;20056;-55
2023/08/31 05:14:43;;;;;;;14.00;11.35;;;11.70;99.90;;;;;;5072661;28;20496;-55
2023/08/31 05:17:09;;;;;;;12.50;11.30;;;11.70;99.90;;;;;;5072597;28;20116;-51
2023/08/31 05:19:35;;;;;;;13.13;11.40;;;11.80;99.90;;;;;;5072460;28;20037;-56
2023/08/31 05:22:01;;;;;;;15.30;11.73;;;11.90;99.90;;;;;;5071608;28;20098;-55
2023/08/31 05:24:27;;;;;;;16.00;6.20;;;12.00;99.90;;;;;;5071842;28;20042;-54
2023/08/31 05:26:53;;;;;;;13.57;11.00;;;11.90;99.90;;;;;;5072690;28;20123;-56
2023/08/31 05:29:18;;;;;;;11.40;9.80;;;11.90;99.90;;;;;;5072577;28;20498;-55
2023/08/31 05:31:44;;;;;;;13.50;5.82;;;12.10;99.90;;;;;;5072576;28;20037;-54
2023/08/31 05:34:10;;;;;;;11.23;6.35;;;12.00;99.90;;;;;;5072334;28;20043;-58
2023/08/31 05:36:36;;;;;;;11.30;9.38;;;12.00;99.90;;;;;;5072273;28;20443;-58
2023/08/31 05:39:02;;;;;;;10.25;8.38;;;12.20;99.90;;;;;;5072334;28;20052;-54
2023/08/31 05:41:28;;;;;;;11.55;8.80;;;12.10;99.90;;;;;;5069400;28;20115;-58
2023/08/31 05:43:56;;;;;;;13.85;9.32;;;12.30;99.90;;;;;;5071798;28;20112;-56
2023/08/31 05:46:22;;;;;;;8.60;5.13;;;12.30;99.90;;;;;;5069246;28;20051;-57
2023/08/31 05:48:47;;;;;;;13.00;8.40;;;12.30;99.90;;;;;;5070791;28;20041;-54
2023/08/31 05:51:13;;;;;;;12.55;5.93;;;12.30;99.90;;;;;;5069040;28;20123;-56
2023/08/31 05:53:39;;;;;;;10.80;8.93;;;12.30;99.90;;;;;;5070580;28;20044;-55
2023/08/31 05:56:05;;;;;;;13.32;6.45;;;12.30;99.90;;;;;;5067743;28;20051;-59
2023/08/31 05:58:32;;;;;;;10.05;8.88;;;12.50;99.90;;;;;;5071819;28;20039;-53
2023/08/31 06:00:58;;;;;;;9.98;8.95;;;12.50;99.90;;;;;;5071508;28;20407;-54
2023/08/31 06:03:24;;;;;;;11.00;8.70;;;12.60;99.90;;;;;;5070532;28;20036;-56
2023/08/31 06:05:50;;;;;;;11.80;8.77;;;12.60;99.90;;;;;;5071941;28;20196;-53
2023/08/31 06:08:15;;;;;;;10.63;6.07;;;12.70;99.90;;;;;;5071438;28;20383;-56
2023/08/31 06:10:41;;;;;;;11.65;5.63;;;12.70;99.90;;;;;;5071569;28;20040;-54
2023/08/31 06:13:07;;;;;;;13.93;6.15;;;12.90;99.90;;;;;;5071533;28;20041;-55
2023/08/31 06:15:32;;;;;;;10.60;7.20;;;12.70;99.90;;;;;;5071592;28;20122;-57
2023/08/31 06:17:58;;;;;;;11.25;7.10;;;12.90;99.90;;;;;;5070375;28;20091;-56
2023/08/31 06:20:24;;;;;;;10.45;6.57;;;12.80;99.90;;;;;;5071342;28;20441;-57
2023/08/31 06:22:50;;;;;;;11.18;5.05;;;13.00;99.90;;;;;;5071354;28;20066;-55
2023/08/31 06:25:18;;;;;;;9.88;5.75;;;12.90;99.90;;;;;;5067412;28;20064;-57
2023/08/31 06:27:44;;;;;;;11.32;4.00;;;13.00;99.90;;;;;;5069806;28;20052;-55
2023/08/31 06:30:15;;;;;;;9.18;3.63;;;12.90;99.90;;;;;;5071110;28;20466;-60
2023/08/31 06:32:46;;;;;;;10.48;5.20;;;12.90;99.90;;;;;;5067515;28;20075;-56
2023/08/31 06:35:12;;;;;;;8.48;4.75;;;13.10;99.90;;;;;;5049573;28;20044;-56
2023/08/31 06:37:39;;;;;;;7.22;2.88;;;13.30;99.90;;;;;;5054531;28;20489;-54
2023/08/31 06:40:08;;;;;;;6.80;3.75;;;13.10;99.90;;;;;;5055983;28;20033;-53
2023/08/31 06:42:37;;;;;;;8.88;3.70;;;13.30;99.90;;;;;;5055231;28;20029;-59
2023/08/31 06:45:07;;;;;;;9.45;3.72;;;13.30;99.90;;;;;;5056792;28;20418;-55
2023/08/31 06:47:34;;;;;;;7.35;3.35;;;13.10;99.90;;;;;;5057004;28;20068;-54
2023/08/31 06:50:00;;;;;;;8.77;3.15;;;13.20;99.90;;;;;;5056248;28;20052;-58
2023/08/31 06:52:28;;;;;;;6.18;3.03;;;13.30;99.90;;;;;;5056746;28;20063;-57
2023/08/31 06:54:56;;;;;;;7.30;2.50;;;13.20;99.90;;;;;;5055646;28;20036;-56
2023/08/31 06:57:23;;;;;;;10.45;2.95;;;13.40;99.90;;;;;;5053857;28;20053;-56
2023/08/31 06:59:48;;;;;;;8.25;1.67;;;13.50;99.90;;;;;;5056859;28;20032;-55
2023/08/31 07:02:14;;;;;;;8.13;2.38;;;13.60;99.90;;;;;;5056982;28;20115;-55
2023/08/31 07:04:40;;;;;;;6.60;2.22;;;13.80;99.90;;;;;;5056532;28;20136;-57
2023/08/31 07:07:08;;;;;;;8.27;2.33;;;13.70;99.90;;;;;;5054633;28;20501;-54
2023/08/31 07:09:34;;;;;;;4.75;1.40;;;13.80;99.90;;;;;;5047752;28;20052;-55
2023/08/31 07:12:01;;;;;;;7.05;1.60;;;14.00;99.90;;;;;;5055186;28;20461;-57
2023/08/31 07:14:27;;;;;;;5.50;1.52;;;13.80;99.90;;;;;;5055379;28;20075;-54
2023/08/31 07:16:53;;;;;;;5.30;1.52;;;14.00;99.90;;;;;;5053274;28;20087;-54
2023/08/31 07:19:18;;;;;;;5.00;1.38;;;14.10;99.90;;;;;;5054020;28;20430;-53
2023/08/31 07:21:45;;;;;;;5.80;1.50;;;14.10;99.90;;;;;;5055426;28;20579;-57
2023/08/31 07:24:11;;;;;;;5.22;1.60;;;14.10;99.90;;;;;;5056012;28;20124;-58
2023/08/31 07:26:36;;;;;;;5.15;1.45;;;14.30;99.90;;;;;;5053637;28;20127;-58
2023/08/31 07:29:04;;;;;;;3.50;1.02;;;14.20;99.90;;;;;;5053996;28;20977;-56
2023/08/31 07:31:31;;;;;;;6.40;1.50;;;14.40;99.90;;;;;;5055745;28;20048;-58
2023/08/31 07:33:57;;;;;;;3.95;1.33;;;14.30;99.90;;;;;;5055575;28;20056;-57
2023/08/31 07:36:23;;;;;;;2.78;0.60;;;14.40;99.90;;;;;;5055789;28;20106;-57
2023/08/31 07:38:48;;;;;;;3.72;0.90;;;14.50;99.90;;;;;;5056744;28;20032;-56
2023/08/31 07:41:14;;;;;;;4.93;0.98;;;14.50;99.90;;;;;;5054160;28;20041;-55
2023/08/31 07:43:40;;;;;;;5.00;0.90;;;14.70;99.90;;;;;;5056036;28;20044;-54
2023/08/31 07:46:05;;;;;;;5.95;1.10;;;14.70;99.90;;;;;;5055436;28;20025;-55
2023/08/31 07:48:31;;;;;;;2.90;0.98;;;14.90;99.90;;;;;;5054464;28;20036;-58
2023/08/31 07:50:57;;;;;;;6.00;1.02;;;14.80;99.90;;;;;;5054113;28;20488;-56
2023/08/31 07:53:22;;;;;;;4.90;1.00;;;15.00;99.90;;;;;;5056820;28;20104;-56
2023/08/31 07:55:54;;;;;;;2.97;0.80;;;15.00;99.90;;;;;;5054419;28;20036;-52
2023/08/31 07:58:23;;;;;;;3.20;0.90;;;15.10;99.90;;;;;;5057739;28;20495;-57
2023/08/31 08:00:51;;;;;;;2.38;0.77;;;15.20;99.90;;;;;;5057966;28;20044;-59
2023/08/31 08:03:17;;;;;;;4.30;0.95;;;15.30;99.90;;;;;;5055698;28;20032;-56
2023/08/31 08:05:43;;;;;;;4.05;1.10;;;15.30;99.90;;;;;;5055991;28;20384;-56
2023/08/31 08:08:09;;;;;;;3.45;0.85;;;15.30;99.90;;;;;;5057198;28;20032;-58
2023/08/31 08:10:35;;;;;;;4.15;1.05;;;15.40;99.90;;;;;;5055754;28;20037;-56
2023/08/31 08:13:01;;;;;;;4.22;0.95;;;15.60;99.90;;;;;;5056313;28;20587;-57
2023/08/31 08:15:26;;;;;;;4.63;1.35;;;15.60;99.90;;;;;;5055256;28;20870;-59
2023/08/31 08:17:53;;;;;;;7.50;1.20;;;15.60;99.90;;;;;;5055617;28;20041;-59
2023/08/31 08:20:19;;;;;;;4.68;0.70;;;15.70;99.90;;;;;;5055562;28;20037;-59
2023/08/31 08:22:45;;;;;;;3.50;1.00;;;15.80;99.90;;;;;;5054509;28;20406;-59
2023/08/31 08:25:11;;;;;;;5.72;0.93;;;15.90;99.90;;;;;;5057447;28;20494;-58
2023/08/31 08:27:36;;;;;;;3.38;1.13;;;15.90;99.90;;;;;;5059218;28;20040;-60
2023/08/31 08:30:03;;;;;;;3.67;1.00;;;15.90;99.90;;;;;;5058342;28;20390;-59
2023/08/31 08:32:29;;;;;;;4.15;1.00;;;15.90;99.90;;;;;;5058300;28;20028;-57
2023/08/31 08:34:54;;;;;;;2.97;0.98;;;15.80;99.90;;;;;;5060110;28;20039;-59
2023/08/31 08:37:20;;;;;;;6.25;1.63;;;15.80;99.90;;;;;;5060045;28;20036;-59
2023/08/31 08:39:50;;;;;;;5.32;1.55;;;15.60;99.90;;;;;;5059914;28;20101;-57
2023/08/31 08:42:18;;;;;;;4.53;1.50;;;15.70;99.90;;;;;;5059902;28;20090;-58
2023/08/31 08:44:44;;;;;;;5.47;1.52;;;15.60;99.90;;;;;;5060057;28;20366;-55
2023/08/31 08:47:12;;;;;;;5.50;1.45;;;15.70;99.90;;;;;;5058909;28;20085;-57
2023/08/31 08:49:38;;;;;;;5.95;1.58;;;15.80;99.90;;;;;;5059480;28;20029;-56
2023/08/31 08:52:05;;;;;;;5.55;1.70;;;15.90;99.90;;;;;;5059482;28;20494;-59
2023/08/31 08:54:31;;;;;;;5.13;1.52;;;15.90;99.90;;;;;;5058586;28;20484;-57
2023/08/31 08:56:57;;;;;;;5.00;1.30;;;15.90;99.90;;;;;;5058474;28;20066;-55
2023/08/31 08:59:24;;;;;;;5.13;1.65;;;15.90;99.90;;;;;;5059205;28;20036;-57
2023/08/31 09:01:50;;;;;;;3.50;1.27;;;16.00;99.90;;;;;;5057955;28;20032;-55
2023/08/31 09:04:16;;;;;;;5.85;1.50;;;16.00;99.90;;;;;;5057136;28;20494;-56
2023/08/31 09:06:41;;;;;;;7.25;1.70;;;16.20;99.90;;;;;;5060106;28;20559;-57
2023/08/31 09:09:10;;;;;;;4.70;1.60;;;16.30;99.90;;;;;;5055171;28;20472;-59
2023/08/31 09:11:36;;;;;;;5.43;1.30;;;16.30;99.90;;;;;;5057694;28;20112;-58
2023/08/31 09:14:19;;;;;;;5.53;1.23;;;16.40;99.90;;;;;;5059088;28;20056;-58
2023/08/31 09:16:49;;;;;;;8.27;1.85;;;16.50;99.90;;;;;;5057605;28;20085;-56
2023/08/31 09:19:27;;;;;;;5.18;1.38;;;16.50;99.90;;;;;;5059145;28;20040;-59
2023/08/31 09:21:56;;;;;;;7.65;1.35;;;16.50;99.90;;;;;;5058539;28;20052;-58
2023/08/31 09:24:23;;;;;;;5.03;1.35;;;16.60;99.90;;;;;;5055572;28;20102;-57
2023/08/31 09:26:55;;;;;;;5.47;1.40;;;16.80;99.90;;;;;;5057897;28;20111;-54
2023/08/31 09:29:21;;;;;;;2.65;0.90;;;16.90;99.90;;;;;;5057565;28;20037;-58
2023/08/31 09:31:47;;;;;;;5.53;1.33;;;17.00;99.90;;;;;;5057597;28;20040;-57
2023/08/31 09:34:17;;;;;;;3.80;1.20;;;17.10;99.90;;;;;;5057380;28;20051;-57
2023/08/31 09:36:43;;;;;;;3.13;1.05;;;17.10;99.90;;;;;;5055901;28;20056;-56
2023/08/31 09:39:10;;;;;;;4.75;1.10;;;17.20;99.90;;;;;;5058049;28;20170;-58
2023/08/31 09:41:51;;;;;;;3.97;1.00;;;17.30;99.90;;;;;;5058750;28;20418;-58
2023/08/31 09:44:19;;;;;;;2.88;1.10;;;17.40;99.90;;;;;;5057999;28;20535;-57
2023/08/31 09:46:45;;;;;;;5.30;0.95;;;17.80;99.90;;;;;;5057632;28;20043;-57
2023/08/31 09:49:14;;;;;;;2.97;0.90;;;17.90;99.90;;;;;;5056859;28;20048;-54
2023/08/31 09:51:44;;;;;;;4.15;0.88;;;17.70;99.90;;;;;;5057187;28;20079;-56
2023/08/31 09:54:16;;;;;;;7.80;1.63;;;17.50;99.90;;;;;;5056444;28;20041;-58
2023/08/31 09:56:43;;;;;;;9.25;1.52;;;17.20;99.90;;;;;;5056600;28;20075;-57
2023/08/31 09:59:11;;;;;;;3.22;1.10;;;16.80;99.90;;;;;;5056505;28;20477;-56
2023/08/31 10:01:37;;;;;;;6.55;1.20;;;16.40;99.90;;;;;;5057417;28;20048;-56
2023/08/31 10:04:03;;;;;;;4.72;1.08;;;16.20;99.90;;;;;;5057326;28;20053;-54
2023/08/31 10:06:31;;;;;;;8.15;1.25;;;16.10;99.90;;;;;;5057471;28;20075;-57
2023/08/31 10:08:56;;;;;;;4.40;0.93;;;16.00;99.90;;;;;;5053559;28;20101;-56
2023/08/31 10:11:25;;;;;;;4.03;0.82;;;16.20;99.90;;;;;;5056300;28;20383;-54
2023/08/31 10:13:53;;;;;;;4.63;1.05;;;16.40;99.90;;;;;;5057319;28;20043;-57
2023/08/31 10:16:21;;;;;;;3.72;0.90;;;16.60;99.90;;;;;;5055881;28;20040;-52
2023/08/31 10:18:48;;;;;;;3.53;1.13;;;16.90;99.90;;;;;;5058267;28;20048;-56
2023/08/31 10:21:17;;;;;;;4.15;1.00;;;17.00;99.90;;;;;;5056124;28;20082;-54
2023/08/31 10:23:47;;;;;;;6.35;1.23;;;17.00;99.90;;;;;;5056579;28;20507;-57
2023/08/31 10:26:27;;;;;;;4.22;0.80;;;17.10;99.90;;;;;;5055074;28;20111;-56
2023/08/31 10:28:53;;;;;;;5.15;1.10;;;17.30;99.90;;;;;;5056979;28;20040;-54
2023/08/31 10:31:22;;;;;;;3.17;0.85;;;17.50;99.90;;;;;;5055186;28;20036;-55
2023/08/31 10:33:55;;;;;;;7.40;0.90;;;17.60;99.90;;;;;;5052796;28;20037;-51
2023/08/31 10:36:38;;;;;;;5.40;1.03;;;17.80;99.90;;;;;;5058483;28;20124;-55
2023/08/31 10:39:17;;;;;;;4.47;1.00;;;18.00;99.90;;;;;;5056740;28;20040;-55
2023/08/31 10:41:53;;;;;;;6.68;1.20;;;17.80;99.90;;;;;;5056322;28;20043;-54
2023/08/31 10:44:23;;;;;;;3.67;1.00;;;17.80;99.90;;;;;;5053101;28;20025;-54
2023/08/31 10:46:50;;;;;;;4.47;0.88;;;17.90;99.90;;;;;;5052448;28;20060;-54
2023/08/31 10:49:19;;;;;;;5.32;0.88;;;18.00;99.90;;;;;;5054413;28;20036;-56
2023/08/31 10:51:46;;;;;;;8.80;1.33;;;18.30;99.90;;;;;;5055646;28;20037;-54
2023/08/31 10:54:34;;;;;;;4.43;1.00;;;18.60;99.90;;;;;;5054746;28;20059;-59
2023/08/31 10:57:00;;;;;;;4.60;1.05;;;18.70;99.90;;;;;;5056022;28;20037;-56
2023/08/31 10:59:40;;;;;;;6.50;1.10;;;19.00;99.90;;;;;;5053626;28;20033;-56
2023/08/31 11:02:06;;;;;;;7.22;1.13;;;18.90;99.90;;;;;;5055263;28;20521;-54
2023/08/31 11:05:05;;;;;;;5.38;1.40;;;18.80;99.90;;;;;;5050738;28;20036;-57
2023/08/31 11:07:31;;;;;;;5.07;1.00;;;18.40;99.90;;;;;;5052588;28;20043;-56
2023/08/31 11:10:10;;;;;;;27.30;2.35;;;18.00;99.90;;;;;;5053176;28;20032;-55
2023/08/31 11:12:36;;;;;;;10.00;1.42;;;17.10;99.90;;;;;;5053155;28;20036;-57
2023/08/31 11:15:03;;;;;;;4.03;0.60;;;15.30;99.90;;;;;;5053728;28;20041;-52
2023/08/31 11:17:30;;;;;;;4.38;1.08;;;14.60;99.90;;;;;;5053002;28;20080;-50
2023/08/31 11:19:56;;;;;;;2.92;0.80;;;14.10;99.90;;;;;;5053307;28;20464;-51
2023/08/31 11:22:22;;;;;;;6.25;0.93;;;13.90;99.90;;;;;;5052925;28;20056;-54
2023/08/31 11:24:49;;;;;;;3.13;0.68;;;13.80;99.90;;;;;;5053667;28;20089;-53
2023/08/31 11:27:18;;;;;;;3.92;0.85;;;14.10;99.90;;;;;;5054160;28;20443;-57
2023/08/31 11:29:44;;;;;;;2.17;0.90;;;14.30;99.90;;;;;;5052771;28;20044;-52
2023/08/31 11:32:10;;;;;;;2.92;0.68;;;14.30;99.90;;;;;;5055901;28;20055;-53
2023/08/31 11:34:49;;;;;;;5.88;0.75;;;14.70;99.90;;;;;;5056704;28;20029;-55
2023/08/31 11:37:19;;;;;;;3.13;0.40;;;15.00;99.90;;;;;;5055716;28;25658;-55
2023/08/31 11:39:54;;;;;;;3.33;0.73;;;15.60;99.90;;;;;;5056686;28;20064;-56
2023/08/31 11:42:22;;;;;;;3.40;0.80;;;15.80;99.90;;;;;;5055808;28;20033;-56
2023/08/31 11:44:49;;;;;;;3.22;0.75;;;16.20;99.90;;;;;;5079091;28;20040;-55
2023/08/31 11:47:16;;;;;;;5.53;1.00;;;16.20;99.90;;;;;;5057046;28;20064;-54
2023/08/31 11:49:43;;;;;;;7.93;1.33;;;16.10;99.90;;;;;;5056279;28;20048;-56
2023/08/31 11:52:13;;;;;;;5.55;1.20;;;16.30;99.90;;;;;;5055693;28;20032;-54
2023/08/31 11:54:40;;;;;;;3.05;0.90;;;16.50;99.90;;;;;;5056543;28;20047;-58
2023/08/31 11:57:10;;;;;;;3.00;0.93;;;16.80;99.90;;;;;;5056815;28;20059;-57
2023/08/31 11:59:37;;;;;;;7.30;1.50;;;16.90;99.90;;;;;;5059319;28;20029;-57
2023/08/31 12:02:07;;;;;;;6.57;1.30;;;17.10;99.90;;;;;;5059781;28;20082;-56
2023/08/31 12:04:32;;;;;;;7.00;1.08;;;17.60;99.90;;;;;;5055894;28;20059;-51
2023/08/31 12:07:06;;;;;;;7.50;1.30;;;17.60;99.90;;;;;;5059107;28;20044;-53
2023/08/31 12:09:32;;;;;;;8.35;1.80;;;17.40;99.90;;;;;;5059084;28;20029;-53
2023/08/31 12:12:00;;;;;;;7.10;1.20;;;17.00;99.90;;;;;;5059131;28;20060;-54
2023/08/31 12:14:26;;;;;;;4.05;0.85;;;16.70;99.90;;;;;;5059327;28;20028;-50
2023/08/31 12:17:00;;;;;;;4.13;0.73;;;16.10;99.90;;;;;;5058644;28;20083;-55
2023/08/31 12:19:29;;;;;;;5.57;1.15;;;15.60;99.90;;;;;;5058756;28;20386;-55
2023/08/31 12:21:55;;;;;;;11.55;1.20;;;15.60;99.90;;;;;;5059480;28;20162;-54
2023/08/31 12:24:23;;;;;;;5.90;1.30;;;15.40;99.90;;;;;;5060571;28;20388;-51
2023/08/31 12:26:49;;;;;;;3.58;1.10;;;15.10;99.90;;;;;;5060617;28;20049;-55
2023/08/31 12:29:15;;;;;;;5.55;1.23;;;15.40;99.90;;;;;;5058214;28;20376;-54
2023/08/31 12:31:41;;;;;;;5.15;1.23;;;15.40;99.90;;;;;;5060968;28;20037;-54
2023/08/31 12:34:07;;;;;;;7.45;1.20;;;15.90;99.90;;;;;;5060623;28;20036;-55
2023/08/31 12:36:33;;;;;;;4.50;1.10;;;16.00;99.90;;;;;;5060037;28;20044;-51
2023/08/31 12:39:05;;;;;;;5.40;1.00;;;16.70;99.90;;;;;;5059043;28;20040;-55
2023/08/31 12:41:31;;;;;;;5.10;1.50;;;16.90;99.90;;;;;;5059471;28;20102;-52
2023/08/31 12:43:57;;;;;;;6.80;1.25;;;17.60;99.90;;;;;;5060151;28;24390;-55
2023/08/31 12:46:24;;;;;;;4.82;1.10;;;18.00;99.90;;;;;;5060216;28;20163;-54
2023/08/31 12:48:50;;;;;;;5.70;1.45;;;18.30;99.90;;;;;;5060472;28;20472;-57